createdAt,value
2024-03-14T00:01:39.442Z,70.86
2024-03-14T00:04:07.835Z,70.45
2024-03-14T00:06:36.541Z,70.81
2024-03-14T00:09:04.925Z,70.21
2024-03-14T00:11:33.527Z,70.30
2024-03-14T00:14:01.905Z,69.87
2024-03-14T00:16:31.507Z,69.71
2024-03-14T00:19:00.918Z,69.69
2024-03-14T00:21:29.423Z,69.94
2024-03-14T00:23:58.761Z,69.45
2024-03-14T00:26:27.722Z,69.86
2024-03-14T00:28:55.947Z,69.94
2024-03-14T00:31:25.857Z,69.28
2024-03-14T00:33:54.206Z,69.47
2024-03-14T00:36:22.697Z,69.47
2024-03-14T00:38:51.124Z,69.93
2024-03-14T00:41:21.020Z,69.51
2024-03-14T00:43:50.148Z,69.83
2024-03-14T00:46:18.420Z,70.36
2024-03-14T00:48:46.786Z,70.44
2024-03-14T00:51:15.469Z,70.58
2024-03-14T00:53:43.845Z,70.52
2024-03-14T00:56:13.532Z,70.37
2024-03-14T00:58:42.773Z,70.91
2024-03-14T01:01:11.116Z,70.52
2024-03-14T01:03:39.561Z,70.73
2024-03-14T01:06:12.163Z,70.60
2024-03-14T01:08:41.973Z,71.07
2024-03-14T01:11:10.418Z,70.79
2024-03-14T01:13:38.670Z,70.50
2024-03-14T01:16:09.659Z,71.11
2024-03-14T01:18:37.969Z,70.75
2024-03-14T01:21:09.273Z,71.01
2024-03-14T01:23:38.510Z,70.55
2024-03-14T01:26:06.819Z,70.62
2024-03-14T01:28:35.925Z,70.88
2024-03-14T01:31:29.556Z,71.16
2024-03-14T01:33:58.369Z,71.18
2024-03-14T01:36:29.885Z,71.33
2024-03-14T01:38:58.981Z,71.09
2024-03-14T01:41:27.569Z,70.71
2024-03-14T01:43:59.201Z,71.24
2024-03-14T01:46:28.807Z,71.53
2024-03-14T01:48:57.459Z,71.18
2024-03-14T01:51:25.936Z,71.43
2024-03-14T01:53:57.029Z,71.17
2024-03-14T01:56:25.850Z,71.32
2024-03-14T01:58:54.522Z,71.34
2024-03-14T02:01:23.403Z,72.04
2024-03-14T02:03:52.812Z,71.38
2024-03-14T02:06:21.917Z,71.86
2024-03-14T02:08:50.218Z,71.66
2024-03-14T02:11:19.952Z,71.77
2024-03-14T02:13:48.318Z,71.78
2024-03-14T02:16:16.632Z,71.92
2024-03-14T02:18:46.963Z,72.09
2024-03-14T02:21:15.365Z,71.46
2024-03-14T02:23:43.637Z,72.17
2024-03-14T02:26:11.963Z,71.80
2024-03-14T02:28:39.324Z,71.89
2024-03-14T02:31:08.467Z,71.31
2024-03-14T02:33:36.793Z,71.87
2024-03-14T02:36:06.351Z,71.12
2024-03-14T02:38:35.419Z,71.62
2024-03-14T02:41:04.275Z,71.42
2024-03-14T02:43:32.569Z,71.36
2024-03-14T02:46:01.949Z,71.31
2024-03-14T02:48:56.195Z,71.60
2024-03-14T02:51:25.140Z,71.54
2024-03-14T02:53:53.608Z,71.01
2024-03-14T02:56:21.953Z,71.00
2024-03-14T02:58:50.481Z,71.05
2024-03-14T03:01:20.518Z,71.80
2024-03-14T03:03:51.382Z,71.59
2024-03-14T03:06:19.741Z,71.00
2024-03-14T03:08:48.060Z,71.17
2024-03-14T03:11:16.678Z,71.41
2024-03-14T03:13:45.994Z,71.14
2024-03-14T03:16:15.116Z,70.50
2024-03-14T03:18:43.608Z,71.29
2024-03-14T03:21:12.290Z,70.99
2024-03-14T03:23:40.898Z,70.55
2024-03-14T03:26:09.289Z,70.55
2024-03-14T03:28:37.527Z,70.54
2024-03-14T03:31:09.645Z,70.56
2024-03-14T03:33:38.044Z,70.98
2024-03-14T03:36:09.086Z,70.75
2024-03-14T03:38:39.260Z,70.32
2024-03-14T03:41:07.385Z,70.50
2024-03-14T03:43:35.735Z,70.43
2024-03-14T03:46:03.011Z,70.16
2024-03-14T03:48:31.403Z,69.82
2024-03-14T03:50:58.709Z,70.25
2024-03-14T03:53:27.043Z,69.79
2024-03-14T03:55:54.526Z,69.81
2024-03-14T03:58:23.702Z,70.53
2024-03-14T04:00:55.293Z,70.30
2024-03-14T04:03:23.656Z,70.50
2024-03-14T04:05:51.294Z,70.13
2024-03-14T04:08:19.528Z,70.40
2024-03-14T04:10:46.819Z,70.08
2024-03-14T04:13:17.609Z,70.40
2024-03-14T04:15:47.683Z,70.76
2024-03-14T04:18:16.230Z,70.14
2024-03-14T04:20:44.525Z,70.08
2024-03-14T04:23:12.758Z,70.17
2024-03-14T04:25:42.205Z,70.14
2024-03-14T04:28:10.491Z,70.08
2024-03-14T04:30:39.238Z,69.65
2024-03-14T04:33:10.073Z,70.60
2024-03-14T04:35:38.477Z,70.85
2024-03-14T04:38:06.809Z,71.49
2024-03-14T04:40:35.038Z,71.76
2024-03-14T04:43:04.923Z,72.13
2024-03-14T04:45:33.298Z,71.86
2024-03-14T04:48:06.913Z,72.67
2024-03-14T04:50:36.289Z,73.26
2024-03-14T04:53:05.597Z,73.37
2024-03-14T04:55:34.785Z,73.00
2024-03-14T04:58:03.028Z,73.70
2024-03-14T05:00:34.121Z,74.31
2024-03-14T05:03:02.677Z,74.42
2024-03-14T05:05:31.125Z,74.39
2024-03-14T05:08:00.938Z,74.28
2024-03-14T05:10:54.221Z,75.22
2024-03-14T05:13:24.244Z,75.55
2024-03-14T05:15:53.771Z,75.65
2024-03-14T05:18:23.014Z,75.85
2024-03-14T05:20:51.351Z,76.16
2024-03-14T05:23:19.656Z,75.61
2024-03-14T05:25:48.828Z,75.47
2024-03-14T05:28:17.687Z,75.20
2024-03-14T05:30:46.005Z,75.12
2024-03-14T05:33:14.392Z,75.63
2024-03-14T05:35:42.746Z,75.13
2024-03-14T05:38:11.095Z,75.15
2024-03-14T05:40:39.403Z,74.88
2024-03-14T05:43:07.646Z,74.54
2024-03-14T05:45:36.729Z,74.78
2024-03-14T05:48:10.550Z,75.04
2024-03-14T05:50:39.174Z,74.90
2024-03-14T05:53:08.860Z,74.34
2024-03-14T05:55:37.398Z,74.92
2024-03-14T05:58:06.562Z,74.73
2024-03-14T06:00:35.016Z,75.09
2024-03-14T06:03:27.745Z,74.77
2024-03-14T06:05:56.279Z,74.67
2024-03-14T06:08:24.780Z,74.76
2024-03-14T06:10:53.178Z,74.28
2024-03-14T06:13:21.498Z,74.69
2024-03-14T06:15:49.871Z,74.23
2024-03-14T06:18:20.540Z,74.05
2024-03-14T06:20:48.969Z,74.61
2024-03-14T06:23:20.908Z,74.56
2024-03-14T06:25:49.571Z,74.63
2024-03-14T06:28:17.980Z,74.39
2024-03-14T06:30:48.629Z,74.46
2024-03-14T06:33:18.148Z,74.23
2024-03-14T06:35:46.462Z,74.57
2024-03-14T06:38:15.747Z,75.16
2024-03-14T06:40:44.050Z,75.08
2024-03-14T06:43:12.361Z,75.39
2024-03-14T06:45:40.811Z,75.68
2024-03-14T06:48:10.442Z,75.23
2024-03-14T06:50:38.840Z,75.39
2024-03-14T06:53:13.180Z,75.45
2024-03-14T06:55:44.141Z,75.04
2024-03-14T06:58:12.521Z,74.74
2024-03-14T07:00:41.999Z,75.86
2024-03-14T07:03:13.272Z,75.62
2024-03-14T07:05:44.040Z,75.39
2024-03-14T07:08:12.948Z,74.93
2024-03-14T07:10:41.757Z,75.35
2024-03-14T07:13:13.070Z,75.25
2024-03-14T07:15:43.239Z,75.18
2024-03-14T07:18:12.706Z,74.71
2024-03-14T07:20:44.584Z,75.12
2024-03-14T07:23:14.601Z,75.50
2024-03-14T07:25:43.166Z,74.90
2024-03-14T07:28:13.972Z,75.67
2024-03-14T07:30:45.088Z,75.03
2024-03-14T07:33:13.384Z,75.23
2024-03-14T07:35:46.128Z,75.13
2024-03-14T07:38:15.943Z,75.16
2024-03-14T07:40:45.412Z,75.08
2024-03-14T07:43:13.906Z,74.78
2024-03-14T07:45:42.356Z,74.58
2024-03-14T07:48:11.358Z,74.72
2024-03-14T07:50:39.720Z,75.11
2024-03-14T07:53:11.059Z,75.28
2024-03-14T07:55:40.493Z,75.05
2024-03-14T07:58:09.503Z,75.00
2024-03-14T08:00:38.385Z,75.10
2024-03-14T08:06:00.383Z,75.68
2024-03-14T08:08:29.137Z,75.22
2024-03-14T08:10:57.437Z,75.41
2024-03-14T08:13:27.206Z,74.79
2024-03-14T08:16:00.839Z,74.60
2024-03-14T08:18:31.390Z,73.65
2024-03-14T08:21:00.191Z,74.06
2024-03-14T08:23:29.454Z,74.10
2024-03-14T08:25:58.286Z,74.01
2024-03-14T08:28:26.642Z,73.83
2024-03-14T08:30:54.965Z,74.55
2024-03-14T08:33:25.151Z,74.57
2024-03-14T08:35:54.607Z,74.80
2024-03-14T08:38:23.555Z,74.71
2024-03-14T08:40:52.848Z,74.26
2024-03-14T08:43:21.059Z,74.29
2024-03-14T08:45:52.186Z,74.21
2024-03-14T08:48:22.534Z,73.77
2024-03-14T08:50:51.291Z,73.94
2024-03-14T08:53:19.572Z,73.98
2024-03-14T08:55:53.990Z,73.97
2024-03-14T08:58:23.090Z,72.95
2024-03-14T09:00:51.551Z,73.65
2024-03-14T09:03:20.076Z,73.22
2024-03-14T09:05:50.431Z,72.79
2024-03-14T09:08:20.066Z,71.53
2024-03-14T09:10:48.429Z,71.64
2024-03-14T09:13:16.689Z,71.62
2024-03-14T09:15:45.095Z,71.74
2024-03-14T09:18:16.253Z,70.15
2024-03-14T09:20:49.511Z,69.43
2024-03-14T09:23:21.443Z,68.92
2024-03-14T09:25:49.915Z,69.62
2024-03-14T09:28:18.163Z,69.41
2024-03-14T09:30:46.633Z,68.82
2024-03-14T09:33:15.076Z,68.51
2024-03-14T09:35:46.974Z,68.24
2024-03-14T09:38:16.398Z,67.68
2024-03-14T09:40:45.600Z,67.59
2024-03-14T09:43:16.062Z,67.74
2024-03-14T09:45:45.754Z,67.98
2024-03-14T09:48:14.373Z,67.41
2024-03-14T09:50:43.328Z,66.95
2024-03-14T09:53:15.801Z,67.88
2024-03-14T09:55:44.100Z,67.70
2024-03-14T09:58:15.892Z,67.26
2024-03-14T10:00:44.950Z,67.24
2024-03-14T10:03:14.540Z,67.58
2024-03-14T10:05:47.410Z,68.21
2024-03-14T10:08:17.201Z,66.73
2024-03-14T10:10:45.611Z,66.55
2024-03-14T10:13:14.190Z,66.35
2024-03-14T10:15:43.245Z,65.72
2024-03-14T10:18:20.803Z,65.49
2024-03-14T10:20:49.079Z,65.29
2024-03-14T10:23:19.004Z,64.51
2024-03-14T10:25:51.688Z,64.16
2024-03-14T10:28:21.754Z,64.16
2024-03-14T10:30:53.410Z,64.48
2024-03-14T10:33:22.655Z,64.49
2024-03-14T10:35:56.973Z,64.69
2024-03-14T10:38:28.519Z,63.96
2024-03-14T10:40:59.664Z,63.38
2024-03-14T10:43:28.445Z,62.97
2024-03-14T10:45:56.723Z,62.05
2024-03-14T10:48:25.169Z,62.77
2024-03-14T10:50:55.669Z,63.48
2024-03-14T10:53:25.496Z,62.17
2024-03-14T10:55:56.334Z,60.91
2024-03-14T10:58:26.659Z,59.81
2024-03-14T11:00:55.068Z,60.00
2024-03-14T11:03:23.692Z,60.34
2024-03-14T11:05:52.323Z,59.34
2024-03-14T11:08:21.871Z,59.88
2024-03-14T11:10:50.291Z,58.13
2024-03-14T11:13:18.880Z,59.93
2024-03-14T11:15:47.770Z,58.52
2024-03-14T11:18:17.771Z,60.52
2024-03-14T11:20:52.430Z,57.88
2024-03-14T11:32:14.878Z,56.32
2024-03-14T11:34:43.815Z,56.81
2024-03-14T11:37:12.985Z,57.43
2024-03-14T11:39:41.357Z,59.15
2024-03-14T11:42:11.484Z,59.21
2024-03-14T11:44:40.766Z,58.39
2024-03-14T11:47:14.972Z,57.91
2024-03-14T11:49:44.553Z,57.06
2024-03-14T11:52:12.971Z,57.04
2024-03-14T11:54:41.462Z,57.31
2024-03-14T11:57:10.057Z,58.53
2024-03-14T11:59:43.644Z,56.91
2024-03-14T12:02:21.018Z,57.02
2024-03-14T12:04:50.467Z,56.63
2024-03-14T12:07:18.685Z,56.38
2024-03-14T12:09:46.906Z,58.61
2024-03-14T12:12:15.507Z,56.85
2024-03-14T12:14:43.738Z,56.36
2024-03-14T12:17:18.643Z,56.26
2024-03-14T12:19:47.157Z,56.27
2024-03-14T12:22:20.390Z,54.75
2024-03-14T12:24:55.420Z,53.09
2024-03-14T12:27:28.292Z,52.33
2024-03-14T12:29:59.785Z,55.44
2024-03-14T12:32:30.918Z,54.11
2024-03-14T12:37:57.792Z,53.71
2024-03-14T12:40:26.085Z,54.18
2024-03-14T12:42:55.039Z,55.42
2024-03-14T12:45:26.715Z,51.99
2024-03-14T12:47:55.972Z,50.94
2024-03-14T12:50:25.390Z,51.38
2024-03-14T12:53:27.600Z,51.02
2024-03-14T12:55:56.663Z,51.11
2024-03-14T12:58:27.008Z,50.87
2024-03-14T13:00:55.851Z,51.19
2024-03-14T13:03:24.424Z,49.65
2024-03-14T13:05:52.926Z,49.15
2024-03-14T13:08:22.340Z,51.07
2024-03-14T13:10:51.271Z,51.74
2024-03-14T13:13:21.503Z,51.71
2024-03-14T13:15:53.981Z,50.21
2024-03-14T13:18:23.193Z,50.10
2024-03-14T13:20:57.681Z,51.47
2024-03-14T13:23:30.661Z,54.85
2024-03-14T13:25:58.920Z,55.04
2024-03-14T13:28:27.109Z,55.58
2024-03-14T13:30:55.323Z,56.28
2024-03-14T13:33:25.656Z,55.92
2024-03-14T13:35:54.109Z,55.70
2024-03-14T13:38:26.930Z,57.52
2024-03-14T13:40:58.531Z,57.61
2024-03-14T13:43:27.516Z,57.39
2024-03-14T13:45:55.779Z,58.08
2024-03-14T13:48:24.694Z,58.66
2024-03-14T13:50:54.912Z,59.74
2024-03-14T13:53:32.643Z,58.69
2024-03-14T13:56:02.343Z,60.08
2024-03-14T13:58:37.385Z,59.97
2024-03-14T14:01:20.444Z,59.90
2024-03-14T14:03:50.939Z,59.51
2024-03-14T14:06:19.314Z,60.40
2024-03-14T14:08:48.303Z,60.27
2024-03-14T14:11:17.532Z,59.92
2024-03-14T14:13:47.777Z,60.11
2024-03-14T14:16:18.136Z,60.88
2024-03-14T14:18:47.074Z,60.54
2024-03-14T14:21:15.983Z,60.85
2024-03-14T14:23:44.551Z,60.12
2024-03-14T14:26:14.350Z,59.79
2024-03-14T14:28:44.500Z,59.44
2024-03-14T14:31:15.466Z,60.07
2024-03-14T14:33:44.207Z,60.46
2024-03-14T14:36:13.250Z,59.61
2024-03-14T14:38:41.755Z,59.67
2024-03-14T14:41:10.232Z,59.66
2024-03-14T14:43:38.582Z,59.25
2024-03-14T14:46:33.892Z,58.67
2024-03-14T14:49:03.034Z,58.86
2024-03-14T14:51:56.117Z,59.52
2024-03-14T14:54:24.374Z,59.57
2024-03-14T14:56:52.693Z,59.83
2024-03-14T14:59:23.024Z,59.22
2024-03-14T15:01:51.396Z,58.76
2024-03-14T15:04:20.185Z,58.97
2024-03-14T15:06:48.507Z,58.59
2024-03-14T15:09:17.753Z,58.30
2024-03-14T15:11:47.553Z,58.57
2024-03-14T15:14:16.494Z,58.62
2024-03-14T15:16:44.762Z,58.84
2024-03-14T15:19:16.645Z,59.07
2024-03-14T15:21:47.169Z,59.37
2024-03-14T15:24:19.931Z,59.26
2024-03-14T15:26:49.305Z,59.80
2024-03-14T15:29:17.489Z,59.33
2024-03-14T15:31:46.243Z,59.66
2024-03-14T15:34:17.977Z,59.35
2024-03-14T15:36:47.400Z,59.86
2024-03-14T15:39:16.016Z,59.38
2024-03-14T15:41:44.845Z,59.33
2024-03-14T15:44:13.083Z,59.90
2024-03-14T15:46:41.418Z,59.54
2024-03-14T15:49:09.644Z,59.72
2024-03-14T15:51:39.309Z,59.62
2024-03-14T15:54:09.229Z,60.17
2024-03-14T15:56:37.438Z,60.17
2024-03-14T15:59:06.579Z,59.42
2024-03-14T16:01:36.063Z,59.29
2024-03-14T16:04:07.949Z,59.16
2024-03-14T16:06:37.967Z,59.36
2024-03-14T16:09:06.340Z,59.03
2024-03-14T16:11:35.329Z,59.47
2024-03-14T16:14:03.684Z,59.24
2024-03-14T16:16:33.973Z,59.50
2024-03-14T16:19:05.593Z,59.24
2024-03-14T16:21:38.864Z,59.50
2024-03-14T16:24:10.588Z,59.79
2024-03-14T16:26:39.776Z,60.00
2024-03-14T16:29:09.555Z,59.92
2024-03-14T16:31:38.544Z,60.09
2024-03-14T16:34:08.326Z,60.34
2024-03-14T16:36:36.767Z,60.37
2024-03-14T16:39:09.223Z,61.09
2024-03-14T16:41:37.548Z,61.17
2024-03-14T16:44:05.937Z,59.42
2024-03-14T16:46:39.409Z,58.44
2024-03-14T16:49:08.959Z,57.97
2024-03-14T16:51:37.332Z,57.32
2024-03-14T16:54:06.984Z,56.84
2024-03-14T16:56:35.549Z,56.13
2024-03-14T16:59:04.306Z,56.24
2024-03-14T17:01:33.341Z,55.97
2024-03-14T17:04:01.662Z,55.62
2024-03-14T17:06:30.373Z,55.42
2024-03-14T17:08:58.710Z,55.22
2024-03-14T17:11:27.035Z,55.24
2024-03-14T17:13:56.863Z,55.58
2024-03-14T17:16:25.409Z,56.24
2024-03-14T17:18:53.977Z,56.49
2024-03-14T17:21:22.434Z,56.75
2024-03-14T17:23:50.896Z,57.13
2024-03-14T17:26:19.203Z,57.19
2024-03-14T17:28:47.405Z,57.27
2024-03-14T17:31:18.348Z,57.77
2024-03-14T17:33:48.159Z,57.98
2024-03-14T17:36:18.638Z,58.25
2024-03-14T17:38:47.123Z,58.70
2024-03-14T17:41:15.799Z,58.63
2024-03-14T17:43:44.173Z,59.28
2024-03-14T17:46:14.502Z,59.99
2024-03-14T17:48:44.039Z,60.21
2024-03-14T17:54:05.353Z,60.81
2024-03-14T17:56:41.733Z,61.92
2024-03-14T17:59:13.529Z,61.97
2024-03-14T18:01:42.720Z,62.25
2024-03-14T18:04:13.483Z,62.14
2024-03-14T18:06:43.170Z,62.24
2024-03-14T18:09:12.498Z,62.80
2024-03-14T18:11:42.432Z,63.07
2024-03-14T18:14:10.696Z,63.86
2024-03-14T18:16:39.897Z,63.57
2024-03-14T18:19:10.143Z,63.97
2024-03-14T18:21:39.981Z,64.44
2024-03-14T18:24:09.567Z,64.43
2024-03-14T18:26:37.818Z,64.02
2024-03-14T18:29:06.174Z,63.57
2024-03-14T18:31:34.483Z,64.22
2024-03-14T18:34:02.849Z,64.01
2024-03-14T18:36:32.978Z,63.28
2024-03-14T18:39:01.484Z,63.43
2024-03-14T18:41:29.722Z,63.73
2024-03-14T18:44:02.307Z,63.30
2024-03-14T18:46:30.758Z,63.13
2024-03-14T18:49:07.596Z,62.74
2024-03-14T18:51:42.956Z,62.89
2024-03-14T18:54:12.218Z,62.68
2024-03-14T18:56:43.408Z,63.69
2024-03-14T18:59:14.252Z,63.65
2024-03-14T19:01:44.143Z,63.03
2024-03-14T19:04:13.571Z,63.04
2024-03-14T19:06:43.742Z,63.51
2024-03-14T19:09:12.562Z,63.35
2024-03-14T19:11:41.574Z,63.62
2024-03-14T19:14:11.347Z,63.73
2024-03-14T19:16:40.200Z,64.42
2024-03-14T19:22:03.221Z,64.35
2024-03-14T19:24:33.197Z,64.79
2024-03-14T19:27:02.315Z,64.75
2024-03-14T19:29:30.989Z,64.63
2024-03-14T19:32:00.187Z,64.90
2024-03-14T19:34:28.930Z,65.03
2024-03-14T19:36:59.558Z,64.90
2024-03-14T19:39:30.077Z,65.03
2024-03-14T19:41:58.462Z,65.11
2024-03-14T19:44:29.317Z,64.79
2024-03-14T19:46:58.432Z,64.07
2024-03-14T19:49:26.941Z,63.90
2024-03-14T19:51:55.758Z,64.64
2024-03-14T19:54:24.152Z,64.04
2024-03-14T19:56:52.439Z,63.99
2024-03-14T19:59:22.540Z,63.94
2024-03-14T20:01:51.214Z,64.03
2024-03-14T20:04:19.765Z,63.84
2024-03-14T20:06:48.247Z,63.77
2024-03-14T20:09:16.559Z,63.96
2024-03-14T20:11:45.265Z,64.06
2024-03-14T20:14:13.869Z,63.76
2024-03-14T20:16:43.738Z,63.78
2024-03-14T20:19:12.097Z,63.41
2024-03-14T20:21:40.722Z,63.35
2024-03-14T20:24:09.149Z,63.14
2024-03-14T20:26:37.493Z,63.62
2024-03-14T20:29:06.596Z,63.47
2024-03-14T20:31:35.649Z,63.50
2024-03-14T20:34:05.079Z,63.46
2024-03-14T20:36:33.364Z,63.16
2024-03-14T20:41:33.026Z,62.79
2024-03-14T20:44:01.906Z,63.42
2024-03-14T20:46:30.169Z,62.72
2024-03-14T20:48:58.670Z,62.58
2024-03-14T20:51:29.099Z,62.67
2024-03-14T20:53:57.740Z,62.57
2024-03-14T20:56:26.104Z,62.41
2024-03-14T20:58:56.694Z,62.46
2024-03-14T21:01:24.943Z,62.32
2024-03-14T21:03:53.311Z,62.48
2024-03-14T21:06:23.586Z,62.21
2024-03-14T21:08:54.294Z,61.98
2024-03-14T21:11:22.768Z,62.28
2024-03-14T21:14:00.659Z,62.20
2024-03-14T21:16:54.355Z,62.00
2024-03-14T21:19:22.903Z,62.28
2024-03-14T21:21:52.195Z,62.21
2024-03-14T21:24:20.639Z,62.34
2024-03-14T21:26:51.544Z,62.12
2024-03-14T21:29:19.908Z,62.35
2024-03-14T21:31:48.465Z,62.28
2024-03-14T21:34:16.667Z,62.07
2024-03-14T21:36:45.700Z,62.09
2024-03-14T21:39:14.115Z,62.35
2024-03-14T21:41:42.348Z,62.21
2024-03-14T21:44:11.015Z,62.39
2024-03-14T21:46:41.208Z,62.46
2024-03-14T21:49:09.821Z,62.22
2024-03-14T21:51:38.072Z,62.47
2024-03-14T21:54:13.407Z,62.14
2024-03-14T21:56:45.959Z,62.14
2024-03-14T21:59:14.809Z,62.50
2024-03-14T22:01:43.638Z,62.49
2024-03-14T22:04:13.046Z,62.86
2024-03-14T22:06:41.290Z,62.71
2024-03-14T22:09:14.637Z,62.65
2024-03-14T22:11:43.145Z,62.78
2024-03-14T22:14:12.203Z,62.66
2024-03-14T22:16:40.576Z,62.73
2024-03-14T22:19:11.183Z,62.99
2024-03-14T22:21:41.574Z,62.97
2024-03-14T22:24:10.125Z,62.55
2024-03-14T22:26:39.769Z,62.59
2024-03-14T22:29:08.854Z,62.90
2024-03-14T22:31:38.288Z,62.81
2024-03-14T22:34:07.195Z,63.22
2024-03-14T22:36:37.944Z,63.27
2024-03-14T22:39:06.232Z,63.71
2024-03-14T22:41:34.522Z,63.34
2024-03-14T22:44:02.776Z,63.43
2024-03-14T22:46:30.982Z,63.73
2024-03-14T22:49:01.248Z,63.53
2024-03-14T22:51:31.867Z,63.49
2024-03-14T22:54:02.576Z,63.36
2024-03-14T22:56:30.879Z,63.54
2024-03-14T22:58:59.151Z,63.59
2024-03-14T23:01:28.612Z,63.81
2024-03-14T23:03:57.073Z,63.89
2024-03-14T23:06:25.814Z,63.83
2024-03-14T23:08:55.483Z,63.92
2024-03-14T23:11:23.800Z,64.09
2024-03-14T23:13:52.334Z,64.22
2024-03-14T23:16:20.634Z,63.90
2024-03-14T23:18:48.880Z,64.06
2024-03-14T23:21:17.276Z,63.63
2024-03-14T23:23:46.107Z,63.96
2024-03-14T23:26:22.218Z,64.35
2024-03-14T23:28:53.724Z,63.69
2024-03-14T23:31:21.961Z,64.16
2024-03-14T23:33:51.827Z,64.45
2024-03-14T23:36:20.295Z,64.31
2024-03-14T23:38:48.633Z,64.45
2024-03-14T23:41:17.554Z,64.06
2024-03-14T23:43:46.773Z,64.09
2024-03-14T23:46:15.516Z,63.80
2024-03-14T23:48:44.620Z,64.32
2024-03-14T23:51:12.897Z,63.94
2024-03-14T23:53:41.720Z,64.08
2024-03-14T23:56:10.167Z,64.48
2024-03-14T23:58:38.357Z,64.49
